sensor_id;sensor_type;location;lat;lon;timestamp;temperature;humidity
13472;DHT22;6808;49.444;11.034;2023-05-31T00:01:47;16.40;46.40
13472;DHT22;6808;49.444;11.034;2023-05-31T00:04:12;16.50;46.30
13472;DHT22;6808;49.444;11.034;2023-05-31T00:06:38;16.30;46.30
13472;DHT22;6808;49.444;11.034;2023-05-31T00:09:03;16.30;46.40
13472;DHT22;6808;49.444;11.034;2023-05-31T00:11:29;16.30;46.40
13472;DHT22;6808;49.444;11.034;2023-05-31T00:13:54;16.30;46.60
13472;DHT22;6808;49.444;11.034;2023-05-31T00:16:20;16.20;46.50
13472;DHT22;6808;49.444;11.034;2023-05-31T00:18:46;16.20;46.40
13472;DHT22;6808;49.444;11.034;2023-05-31T00:21:12;15.90;46.30
13472;DHT22;6808;49.444;11.034;2023-05-31T00:23:37;16.10;46.70
13472;DHT22;6808;49.444;11.034;2023-05-31T00:26:03;16.50;47.50
13472;DHT22;6808;49.444;11.034;2023-05-31T00:28:28;16.20;47.80
13472;DHT22;6808;49.444;11.034;2023-05-31T00:30:54;16.10;47.50
13472;DHT22;6808;49.444;11.034;2023-05-31T00:33:19;16.10;47.00
13472;DHT22;6808;49.444;11.034;2023-05-31T00:35:45;16.10;47.20
13472;DHT22;6808;49.444;11.034;2023-05-31T00:38:11;16.30;47.10
13472;DHT22;6808;49.444;11.034;2023-05-31T00:40:36;16.10;47.60
13472;DHT22;6808;49.444;11.034;2023-05-31T00:43:02;16.10;47.90
13472;DHT22;6808;49.444;11.034;2023-05-31T00:45:27;16.10;47.70
13472;DHT22;6808;49.444;11.034;2023-05-31T00:47:54;16.10;48.40
13472;DHT22;6808;49.444;11.034;2023-05-31T00:50:21;15.90;47.40
13472;DHT22;6808;49.444;11.034;2023-05-31T00:52:48;16.00;48.80
13472;DHT22;6808;49.444;11.034;2023-05-31T00:55:16;16.00;48.40
13472;DHT22;6808;49.444;11.034;2023-05-31T00:57:41;16.00;49.60
13472;DHT22;6808;49.444;11.034;2023-05-31T01:00:08;15.90;49.70
13472;DHT22;6808;49.444;11.034;2023-05-31T01:02:35;15.90;50.20
13472;DHT22;6808;49.444;11.034;2023-05-31T01:05:04;16.50;51.30
13472;DHT22;6808;49.444;11.034;2023-05-31T01:07:30;15.70;50.70
13472;DHT22;6808;49.444;11.034;2023-05-31T01:09:55;15.70;51.10
13472;DHT22;6808;49.444;11.034;2023-05-31T01:12:55;15.60;51.30
13472;DHT22;6808;49.444;11.034;2023-05-31T01:15:32;15.60;51.80
13472;DHT22;6808;49.444;11.034;2023-05-31T01:18:18;15.90;52.60
13472;DHT22;6808;49.444;11.034;2023-05-31T01:20:51;15.40;52.30
13472;DHT22;6808;49.444;11.034;2023-05-31T01:26:05;15.30;53.80
13472;DHT22;6808;49.444;11.034;2023-05-31T01:28:42;15.30;53.80
13472;DHT22;6808;49.444;11.034;2023-05-31T01:31:14;15.20;53.90
13472;DHT22;6808;49.444;11.034;2023-05-31T01:33:41;15.10;54.10
13472;DHT22;6808;49.444;11.034;2023-05-31T01:36:08;15.10;54.90
13472;DHT22;6808;49.444;11.034;2023-05-31T01:38:33;15.10;54.60
13472;DHT22;6808;49.444;11.034;2023-05-31T01:40:59;15.00;55.10
13472;DHT22;6808;49.444;11.034;2023-05-31T01:43:26;14.90;55.50
13472;DHT22;6808;49.444;11.034;2023-05-31T01:45:53;14.90;55.90
13472;DHT22;6808;49.444;11.034;2023-05-31T01:48:19;14.80;56.40
13472;DHT22;6808;49.444;11.034;2023-05-31T01:50:45;14.70;57.10
13472;DHT22;6808;49.444;11.034;2023-05-31T01:53:11;14.60;56.90
13472;DHT22;6808;49.444;11.034;2023-05-31T01:55:37;14.60;57.20
13472;DHT22;6808;49.444;11.034;2023-05-31T01:58:04;14.50;57.40
13472;DHT22;6808;49.444;11.034;2023-05-31T02:00:30;14.50;57.10
13472;DHT22;6808;49.444;11.034;2023-05-31T02:02:56;14.50;57.40
13472;DHT22;6808;49.444;11.034;2023-05-31T02:05:23;14.50;57.40
13472;DHT22;6808;49.444;11.034;2023-05-31T02:07:48;14.50;57.40
13472;DHT22;6808;49.444;11.034;2023-05-31T02:10:14;14.50;58.20
13472;DHT22;6808;49.444;11.034;2023-05-31T02:12:40;14.40;58.20
13472;DHT22;6808;49.444;11.034;2023-05-31T02:15:07;14.40;58.70
13472;DHT22;6808;49.444;11.034;2023-05-31T02:17:40;14.30;59.00
13472;DHT22;6808;49.444;11.034;2023-05-31T02:20:10;14.20;59.00
13472;DHT22;6808;49.444;11.034;2023-05-31T02:22:36;14.10;59.50
13472;DHT22;6808;49.444;11.034;2023-05-31T02:25:02;14.10;59.50
13472;DHT22;6808;49.444;11.034;2023-05-31T02:27:29;14.00;59.60
13472;DHT22;6808;49.444;11.034;2023-05-31T02:29:54;13.90;59.60
13472;DHT22;6808;49.444;11.034;2023-05-31T02:32:20;13.90;59.40
13472;DHT22;6808;49.444;11.034;2023-05-31T02:34:45;13.70;60.30
13472;DHT22;6808;49.444;11.034;2023-05-31T02:37:11;13.70;60.40
13472;DHT22;6808;49.444;11.034;2023-05-31T02:39:37;13.70;60.80
13472;DHT22;6808;49.444;11.034;2023-05-31T02:42:02;13.70;61.20
13472;DHT22;6808;49.444;11.034;2023-05-31T02:44:28;13.60;61.50
13472;DHT22;6808;49.444;11.034;2023-05-31T02:46:54;13.60;62.50
13472;DHT22;6808;49.444;11.034;2023-05-31T02:49:19;13.50;62.30
13472;DHT22;6808;49.444;11.034;2023-05-31T02:51:45;13.50;62.70
13472;DHT22;6808;49.444;11.034;2023-05-31T02:54:11;13.50;63.50
13472;DHT22;6808;49.444;11.034;2023-05-31T02:56:36;13.40;63.50
13472;DHT22;6808;49.444;11.034;2023-05-31T02:59:02;13.40;63.70
13472;DHT22;6808;49.444;11.034;2023-05-31T03:01:28;13.40;65.50
13472;DHT22;6808;49.444;11.034;2023-05-31T03:03:53;13.40;64.50
13472;DHT22;6808;49.444;11.034;2023-05-31T03:06:19;13.30;65.20
13472;DHT22;6808;49.444;11.034;2023-05-31T03:08:45;13.30;65.40
13472;DHT22;6808;49.444;11.034;2023-05-31T03:11:10;13.30;65.10
13472;DHT22;6808;49.444;11.034;2023-05-31T03:13:36;13.30;66.50
13472;DHT22;6808;49.444;11.034;2023-05-31T03:16:01;13.20;66.20
13472;DHT22;6808;49.444;11.034;2023-05-31T03:18:27;13.20;66.80
13472;DHT22;6808;49.444;11.034;2023-05-31T03:20:53;13.10;67.40
13472;DHT22;6808;49.444;11.034;2023-05-31T03:23:18;13.10;67.50
13472;DHT22;6808;49.444;11.034;2023-05-31T03:25:44;13.10;68.30
13472;DHT22;6808;49.444;11.034;2023-05-31T03:28:09;13.00;68.30
13472;DHT22;6808;49.444;11.034;2023-05-31T03:30:35;13.00;69.30
13472;DHT22;6808;49.444;11.034;2023-05-31T03:33:01;13.00;70.20
13472;DHT22;6808;49.444;11.034;2023-05-31T03:35:28;12.90;70.00
13472;DHT22;6808;49.444;11.034;2023-05-31T03:37:53;12.90;69.90
13472;DHT22;6808;49.444;11.034;2023-05-31T03:40:19;12.80;71.00
13472;DHT22;6808;49.444;11.034;2023-05-31T03:42:45;12.90;71.50
13472;DHT22;6808;49.444;11.034;2023-05-31T03:45:11;12.90;71.70
13472;DHT22;6808;49.444;11.034;2023-05-31T03:47:36;12.80;71.70
13472;DHT22;6808;49.444;11.034;2023-05-31T03:50:05;12.80;72.70
13472;DHT22;6808;49.444;11.034;2023-05-31T03:52:31;12.80;72.20
13472;DHT22;6808;49.444;11.034;2023-05-31T03:54:57;12.80;72.10
13472;DHT22;6808;49.444;11.034;2023-05-31T03:57:23;12.80;72.80
13472;DHT22;6808;49.444;11.034;2023-05-31T03:59:48;12.90;71.20
13472;DHT22;6808;49.444;11.034;2023-05-31T04:02:14;12.90;72.90
13472;DHT22;6808;49.444;11.034;2023-05-31T04:04:39;12.90;71.20
13472;DHT22;6808;49.444;11.034;2023-05-31T04:07:05;12.90;70.70
13472;DHT22;6808;49.444;11.034;2023-05-31T04:09:31;12.90;72.40
13472;DHT22;6808;49.444;11.034;2023-05-31T04:11:56;13.00;71.80
13472;DHT22;6808;49.444;11.034;2023-05-31T04:14:22;13.00;72.10
13472;DHT22;6808;49.444;11.034;2023-05-31T04:16:47;13.00;73.10
13472;DHT22;6808;49.444;11.034;2023-05-31T04:19:13;13.00;72.20
13472;DHT22;6808;49.444;11.034;2023-05-31T04:21:39;13.10;72.90
13472;DHT22;6808;49.444;11.034;2023-05-31T04:24:05;13.10;72.80
13472;DHT22;6808;49.444;11.034;2023-05-31T04:26:31;13.20;72.20
13472;DHT22;6808;49.444;11.034;2023-05-31T04:28:57;13.40;71.70
13472;DHT22;6808;49.444;11.034;2023-05-31T04:31:24;13.50;69.70
13472;DHT22;6808;49.444;11.034;2023-05-31T04:33:50;13.60;72.30
13472;DHT22;6808;49.444;11.034;2023-05-31T04:36:21;13.70;73.10
13472;DHT22;6808;49.444;11.034;2023-05-31T04:38:47;13.90;73.10
13472;DHT22;6808;49.444;11.034;2023-05-31T04:41:14;14.10;71.10
13472;DHT22;6808;49.444;11.034;2023-05-31T04:43:42;14.20;71.80
13472;DHT22;6808;49.444;11.034;2023-05-31T04:46:08;14.40;70.00
13472;DHT22;6808;49.444;11.034;2023-05-31T04:48:35;14.70;67.50
13472;DHT22;6808;49.444;11.034;2023-05-31T04:51:01;14.90;67.20
13472;DHT22;6808;49.444;11.034;2023-05-31T04:53:27;15.00;62.10
13472;DHT22;6808;49.444;11.034;2023-05-31T04:55:52;15.20;59.70
13472;DHT22;6808;49.444;11.034;2023-05-31T04:58:18;15.30;59.00
13472;DHT22;6808;49.444;11.034;2023-05-31T05:00:45;15.50;58.60
13472;DHT22;6808;49.444;11.034;2023-05-31T05:03:11;15.60;58.30
13472;DHT22;6808;49.444;11.034;2023-05-31T05:05:37;15.50;57.90
13472;DHT22;6808;49.444;11.034;2023-05-31T05:08:03;15.30;57.90
13472;DHT22;6808;49.444;11.034;2023-05-31T05:10:28;15.10;58.20
13472;DHT22;6808;49.444;11.034;2023-05-31T05:12:54;15.10;58.50
13472;DHT22;6808;49.444;11.034;2023-05-31T05:15:20;15.00;58.40
13472;DHT22;6808;49.444;11.034;2023-05-31T05:17:45;14.80;58.90
13472;DHT22;6808;49.444;11.034;2023-05-31T05:20:11;14.90;59.10
13472;DHT22;6808;49.444;11.034;2023-05-31T05:22:38;14.90;58.90
13472;DHT22;6808;49.444;11.034;2023-05-31T05:25:03;14.90;58.80
13472;DHT22;6808;49.444;11.034;2023-05-31T05:27:29;15.00;59.00
13472;DHT22;6808;49.444;11.034;2023-05-31T05:29:55;15.00;58.70
13472;DHT22;6808;49.444;11.034;2023-05-31T05:32:21;14.90;58.60
13472;DHT22;6808;49.444;11.034;2023-05-31T05:34:46;14.90;58.80
13472;DHT22;6808;49.444;11.034;2023-05-31T05:37:12;15.00;58.90
13472;DHT22;6808;49.444;11.034;2023-05-31T05:39:38;15.10;59.10
13472;DHT22;6808;49.444;11.034;2023-05-31T05:42:03;15.20;59.20
13472;DHT22;6808;49.444;11.034;2023-05-31T05:44:29;15.40;59.20
13472;DHT22;6808;49.444;11.034;2023-05-31T05:46:54;15.60;58.60
13472;DHT22;6808;49.444;11.034;2023-05-31T05:49:21;15.80;58.60
13472;DHT22;6808;49.444;11.034;2023-05-31T05:51:47;16.00;58.40
13472;DHT22;6808;49.444;11.034;2023-05-31T05:54:12;16.20;57.50
13472;DHT22;6808;49.444;11.034;2023-05-31T05:56:38;16.40;56.90
13472;DHT22;6808;49.444;11.034;2023-05-31T05:59:03;16.50;56.40
13472;DHT22;6808;49.444;11.034;2023-05-31T06:01:29;16.70;56.40
13472;DHT22;6808;49.444;11.034;2023-05-31T06:03:55;17.10;56.40
13472;DHT22;6808;49.444;11.034;2023-05-31T06:06:21;17.50;55.30
13472;DHT22;6808;49.444;11.034;2023-05-31T06:08:46;17.80;54.30
13472;DHT22;6808;49.444;11.034;2023-05-31T06:11:13;17.60;53.90
13472;DHT22;6808;49.444;11.034;2023-05-31T06:13:42;17.80;53.70
13472;DHT22;6808;49.444;11.034;2023-05-31T06:16:08;18.00;53.70
13472;DHT22;6808;49.444;11.034;2023-05-31T06:18:33;18.70;53.30
13472;DHT22;6808;49.444;11.034;2023-05-31T06:21:00;18.20;53.40
13472;DHT22;6808;49.444;11.034;2023-05-31T06:23:26;18.50;53.00
13472;DHT22;6808;49.444;11.034;2023-05-31T06:25:52;18.60;51.50
13472;DHT22;6808;49.444;11.034;2023-05-31T06:28:18;18.70;52.50
13472;DHT22;6808;49.444;11.034;2023-05-31T06:30:43;18.90;51.80
13472;DHT22;6808;49.444;11.034;2023-05-31T06:33:09;18.80;51.70
13472;DHT22;6808;49.444;11.034;2023-05-31T06:35:35;19.30;51.70
13472;DHT22;6808;49.444;11.034;2023-05-31T06:38:00;19.20;51.10
13472;DHT22;6808;49.444;11.034;2023-05-31T06:40:29;19.50;50.70
13472;DHT22;6808;49.444;11.034;2023-05-31T06:42:55;19.60;50.20
13472;DHT22;6808;49.444;11.034;2023-05-31T06:45:20;19.70;49.70
13472;DHT22;6808;49.444;11.034;2023-05-31T06:47:46;19.70;49.20
13472;DHT22;6808;49.444;11.034;2023-05-31T06:50:11;19.80;49.50
13472;DHT22;6808;49.444;11.034;2023-05-31T06:52:39;19.90;48.90
13472;DHT22;6808;49.444;11.034;2023-05-31T06:55:05;20.00;48.30
13472;DHT22;6808;49.444;11.034;2023-05-31T06:57:31;20.10;47.90
13472;DHT22;6808;49.444;11.034;2023-05-31T06:59:57;20.10;47.90
13472;DHT22;6808;49.444;11.034;2023-05-31T07:02:22;20.20;48.20
13472;DHT22;6808;49.444;11.034;2023-05-31T07:04:49;20.30;48.10
13472;DHT22;6808;49.444;11.034;2023-05-31T07:07:15;20.40;47.40
13472;DHT22;6808;49.444;11.034;2023-05-31T07:09:40;20.30;47.50
13472;DHT22;6808;49.444;11.034;2023-05-31T07:12:06;20.40;47.60
13472;DHT22;6808;49.444;11.034;2023-05-31T07:14:32;20.20;46.30
13472;DHT22;6808;49.444;11.034;2023-05-31T07:16:57;20.10;46.20
13472;DHT22;6808;49.444;11.034;2023-05-31T07:19:23;20.20;46.50
13472;DHT22;6808;49.444;11.034;2023-05-31T07:21:50;20.40;46.60
13472;DHT22;6808;49.444;11.034;2023-05-31T07:24:15;20.90;46.50
13472;DHT22;6808;49.444;11.034;2023-05-31T07:26:41;20.80;46.30
13472;DHT22;6808;49.444;11.034;2023-05-31T07:29:06;21.00;46.10
13472;DHT22;6808;49.444;11.034;2023-05-31T07:31:32;21.30;45.80
13472;DHT22;6808;49.444;11.034;2023-05-31T07:33:58;20.80;44.60
13472;DHT22;6808;49.444;11.034;2023-05-31T07:36:23;21.00;44.80
13472;DHT22;6808;49.444;11.034;2023-05-31T07:38:50;21.10;44.40
13472;DHT22;6808;49.444;11.034;2023-05-31T07:41:16;21.20;44.20
13472;DHT22;6808;49.444;11.034;2023-05-31T07:43:43;21.30;44.10
13472;DHT22;6808;49.444;11.034;2023-05-31T07:46:10;21.40;44.70
13472;DHT22;6808;49.444;11.034;2023-05-31T07:48:35;21.30;43.60
13472;DHT22;6808;49.444;11.034;2023-05-31T07:51:01;21.50;43.20
13472;DHT22;6808;49.444;11.034;2023-05-31T07:53:26;21.50;42.20
13472;DHT22;6808;49.444;11.034;2023-05-31T07:55:52;21.50;42.00
13472;DHT22;6808;49.444;11.034;2023-05-31T07:58:18;21.60;42.20
13472;DHT22;6808;49.444;11.034;2023-05-31T08:00:43;21.40;41.50
13472;DHT22;6808;49.444;11.034;2023-05-31T08:03:09;21.10;41.10
13472;DHT22;6808;49.444;11.034;2023-05-31T08:05:35;21.20;41.50
13472;DHT22;6808;49.444;11.034;2023-05-31T08:08:00;21.40;41.40
13472;DHT22;6808;49.444;11.034;2023-05-31T08:10:26;21.40;41.30
13472;DHT22;6808;49.444;11.034;2023-05-31T08:12:52;21.40;41.00
13472;DHT22;6808;49.444;11.034;2023-05-31T08:15:17;21.50;41.00
13472;DHT22;6808;49.444;11.034;2023-05-31T08:17:43;21.50;40.80
13472;DHT22;6808;49.444;11.034;2023-05-31T08:20:10;21.50;40.80
13472;DHT22;6808;49.444;11.034;2023-05-31T08:22:37;21.60;40.90
13472;DHT22;6808;49.444;11.034;2023-05-31T08:25:03;21.60;40.70
13472;DHT22;6808;49.444;11.034;2023-05-31T08:27:29;21.60;40.90
13472;DHT22;6808;49.444;11.034;2023-05-31T08:29:54;21.40;41.40
13472;DHT22;6808;49.444;11.034;2023-05-31T08:32:21;21.30;41.10
13472;DHT22;6808;49.444;11.034;2023-05-31T08:34:47;21.10;41.20
13472;DHT22;6808;49.444;11.034;2023-05-31T08:37:12;21.00;40.80
13472;DHT22;6808;49.444;11.034;2023-05-31T08:39:38;20.90;40.40
13472;DHT22;6808;49.444;11.034;2023-05-31T08:42:07;21.00;41.20
13472;DHT22;6808;49.444;11.034;2023-05-31T08:44:36;21.00;41.00
13472;DHT22;6808;49.444;11.034;2023-05-31T08:47:17;21.00;40.80
13472;DHT22;6808;49.444;11.034;2023-05-31T08:49:44;21.40;41.40
13472;DHT22;6808;49.444;11.034;2023-05-31T08:52:11;21.00;40.90
13472;DHT22;6808;49.444;11.034;2023-05-31T08:54:38;21.00;40.50
13472;DHT22;6808;49.444;11.034;2023-05-31T08:57:05;21.10;40.80
13472;DHT22;6808;49.444;11.034;2023-05-31T08:59:34;21.10;40.80
13472;DHT22;6808;49.444;11.034;2023-05-31T09:02:00;21.10;40.70
13472;DHT22;6808;49.444;11.034;2023-05-31T09:04:26;21.10;40.60
13472;DHT22;6808;49.444;11.034;2023-05-31T09:06:52;21.20;40.70
13472;DHT22;6808;49.444;11.034;2023-05-31T09:09:17;21.30;40.80
13472;DHT22;6808;49.444;11.034;2023-05-31T09:11:44;21.30;40.50
13472;DHT22;6808;49.444;11.034;2023-05-31T09:14:10;21.40;40.40
13472;DHT22;6808;49.444;11.034;2023-05-31T09:16:35;21.50;39.90
13472;DHT22;6808;49.444;11.034;2023-05-31T09:19:03;21.50;38.80
13472;DHT22;6808;49.444;11.034;2023-05-31T09:21:40;21.40;39.00
13472;DHT22;6808;49.444;11.034;2023-05-31T09:24:07;21.40;38.90
13472;DHT22;6808;49.444;11.034;2023-05-31T09:26:33;21.40;38.90
13472;DHT22;6808;49.444;11.034;2023-05-31T09:28:58;21.30;39.10
13472;DHT22;6808;49.444;11.034;2023-05-31T09:31:25;21.40;38.80
13472;DHT22;6808;49.444;11.034;2023-05-31T09:33:51;21.40;39.20
13472;DHT22;6808;49.444;11.034;2023-05-31T09:36:28;21.40;39.10
13472;DHT22;6808;49.444;11.034;2023-05-31T09:39:05;21.50;38.50
13472;DHT22;6808;49.444;11.034;2023-05-31T09:41:33;21.60;39.00
13472;DHT22;6808;49.444;11.034;2023-05-31T09:43:58;21.70;39.10
13472;DHT22;6808;49.444;11.034;2023-05-31T09:46:25;21.60;39.10
13472;DHT22;6808;49.444;11.034;2023-05-31T09:49:05;21.70;40.10
13472;DHT22;6808;49.444;11.034;2023-05-31T09:51:32;21.80;39.40
13472;DHT22;6808;49.444;11.034;2023-05-31T09:54:00;21.70;39.10
13472;DHT22;6808;49.444;11.034;2023-05-31T09:56:28;21.60;39.10
13472;DHT22;6808;49.444;11.034;2023-05-31T09:58:57;21.70;40.00
13472;DHT22;6808;49.444;11.034;2023-05-31T10:01:22;21.70;39.80
13472;DHT22;6808;49.444;11.034;2023-05-31T10:03:51;21.60;39.40
13472;DHT22;6808;49.444;11.034;2023-05-31T10:06:18;22.30;43.20
13472;DHT22;6808;49.444;11.034;2023-05-31T10:08:45;21.80;39.50
13472;DHT22;6808;49.444;11.034;2023-05-31T10:11:15;22.00;40.90
13472;DHT22;6808;49.444;11.034;2023-05-31T10:13:42;22.20;40.00
13472;DHT22;6808;49.444;11.034;2023-05-31T10:16:11;22.10;38.70
13472;DHT22;6808;49.444;11.034;2023-05-31T10:18:45;22.30;38.40
13472;DHT22;6808;49.444;11.034;2023-05-31T10:21:20;22.30;38.30
13472;DHT22;6808;49.444;11.034;2023-05-31T10:24:07;22.40;39.00
13472;DHT22;6808;49.444;11.034;2023-05-31T10:27:00;22.40;39.30
13472;DHT22;6808;49.444;11.034;2023-05-31T10:29:31;22.50;42.30
13472;DHT22;6808;49.444;11.034;2023-05-31T10:32:26;22.60;39.40
13472;DHT22;6808;49.444;11.034;2023-05-31T10:34:52;22.70;39.90
13472;DHT22;6808;49.444;11.034;2023-05-31T10:37:18;22.80;39.20
13472;DHT22;6808;49.444;11.034;2023-05-31T10:40:01;22.90;38.70
13472;DHT22;6808;49.444;11.034;2023-05-31T10:45:41;23.00;37.80
13472;DHT22;6808;49.444;11.034;2023-05-31T10:48:25;22.90;37.80
13472;DHT22;6808;49.444;11.034;2023-05-31T10:50:59;23.00;37.00
13472;DHT22;6808;49.444;11.034;2023-05-31T10:53:45;23.10;36.00
13472;DHT22;6808;49.444;11.034;2023-05-31T10:56:14;23.20;36.40
13472;DHT22;6808;49.444;11.034;2023-05-31T10:58:48;23.40;36.90
13472;DHT22;6808;49.444;11.034;2023-05-31T11:01:15;23.50;38.30
13472;DHT22;6808;49.444;11.034;2023-05-31T11:03:51;23.60;37.80
13472;DHT22;6808;49.444;11.034;2023-05-31T11:06:22;23.80;38.30
13472;DHT22;6808;49.444;11.034;2023-05-31T11:09:10;23.80;37.20
13472;DHT22;6808;49.444;11.034;2023-05-31T11:14:08;23.40;34.80
13472;DHT22;6808;49.444;11.034;2023-05-31T11:19:30;23.30;35.10
13472;DHT22;6808;49.444;11.034;2023-05-31T11:21:57;23.50;36.20
13472;DHT22;6808;49.444;11.034;2023-05-31T11:24:39;23.50;35.10
13472;DHT22;6808;49.444;11.034;2023-05-31T11:27:11;23.50;35.00
13472;DHT22;6808;49.444;11.034;2023-05-31T11:34:50;23.90;39.20
13472;DHT22;6808;49.444;11.034;2023-05-31T11:37:20;24.10;34.90
13472;DHT22;6808;49.444;11.034;2023-05-31T11:39:46;23.90;33.60
13472;DHT22;6808;49.444;11.034;2023-05-31T11:42:13;23.80;32.70
13472;DHT22;6808;49.444;11.034;2023-05-31T11:44:46;24.20;33.40
13472;DHT22;6808;49.444;11.034;2023-05-31T11:47:18;23.80;33.60
13472;DHT22;6808;49.444;11.034;2023-05-31T11:49:45;24.10;34.50
13472;DHT22;6808;49.444;11.034;2023-05-31T11:52:15;24.10;35.40
13472;DHT22;6808;49.444;11.034;2023-05-31T11:54:47;24.30;36.30
13472;DHT22;6808;49.444;11.034;2023-05-31T11:57:15;24.50;34.60
13472;DHT22;6808;49.444;11.034;2023-05-31T11:59:46;24.50;34.60
13472;DHT22;6808;49.444;11.034;2023-05-31T12:02:12;24.90;34.60
13472;DHT22;6808;49.444;11.034;2023-05-31T12:04:42;24.50;34.50
13472;DHT22;6808;49.444;11.034;2023-05-31T12:07:11;24.50;34.60
13472;DHT22;6808;49.444;11.034;2023-05-31T12:09:37;24.60;35.00
13472;DHT22;6808;49.444;11.034;2023-05-31T12:12:04;24.70;35.10
13472;DHT22;6808;49.444;11.034;2023-05-31T12:14:33;24.90;38.00
13472;DHT22;6808;49.444;11.034;2023-05-31T12:17:04;24.70;34.60
13472;DHT22;6808;49.444;11.034;2023-05-31T12:19:30;24.70;34.60
13472;DHT22;6808;49.444;11.034;2023-05-31T12:21:56;24.70;35.00
13472;DHT22;6808;49.444;11.034;2023-05-31T12:24:22;24.80;35.60
13472;DHT22;6808;49.444;11.034;2023-05-31T12:26:48;24.90;35.00
13472;DHT22;6808;49.444;11.034;2023-05-31T12:29:15;25.10;35.30
13472;DHT22;6808;49.444;11.034;2023-05-31T12:31:41;25.20;35.90
13472;DHT22;6808;49.444;11.034;2023-05-31T12:34:11;25.10;35.80
13472;DHT22;6808;49.444;11.034;2023-05-31T12:36:47;25.10;35.40
13472;DHT22;6808;49.444;11.034;2023-05-31T12:39:18;24.80;35.90
13472;DHT22;6808;49.444;11.034;2023-05-31T12:41:45;24.90;35.30
13472;DHT22;6808;49.444;11.034;2023-05-31T12:44:15;25.00;36.00
13472;DHT22;6808;49.444;11.034;2023-05-31T12:46:43;25.10;35.70
13472;DHT22;6808;49.444;11.034;2023-05-31T12:49:24;25.20;37.80
13472;DHT22;6808;49.444;11.034;2023-05-31T12:52:01;25.50;35.20
13472;DHT22;6808;49.444;11.034;2023-05-31T12:54:28;25.60;34.40
13472;DHT22;6808;49.444;11.034;2023-05-31T12:56:55;25.50;33.70
13472;DHT22;6808;49.444;11.034;2023-05-31T12:59:20;25.50;32.40
13472;DHT22;6808;49.444;11.034;2023-05-31T13:01:46;25.50;31.90
13472;DHT22;6808;49.444;11.034;2023-05-31T13:04:13;25.30;32.00
13472;DHT22;6808;49.444;11.034;2023-05-31T13:06:39;25.30;32.50
13472;DHT22;6808;49.444;11.034;2023-05-31T13:09:05;25.40;32.50
13472;DHT22;6808;49.444;11.034;2023-05-31T13:11:41;25.60;32.80
13472;DHT22;6808;49.444;11.034;2023-05-31T13:14:08;25.80;32.60
13472;DHT22;6808;49.444;11.034;2023-05-31T13:16:37;25.50;32.40
13472;DHT22;6808;49.444;11.034;2023-05-31T13:19:05;25.70;32.60
13472;DHT22;6808;49.444;11.034;2023-05-31T13:21:32;25.70;33.10
13472;DHT22;6808;49.444;11.034;2023-05-31T13:23:58;25.90;32.20
13472;DHT22;6808;49.444;11.034;2023-05-31T13:26:25;25.70;31.80
13472;DHT22;6808;49.444;11.034;2023-05-31T13:28:53;25.50;31.60
13472;DHT22;6808;49.444;11.034;2023-05-31T13:31:19;25.20;32.70
13472;DHT22;6808;49.444;11.034;2023-05-31T13:33:45;25.40;32.00
13472;DHT22;6808;49.444;11.034;2023-05-31T13:36:15;25.50;33.10
13472;DHT22;6808;49.444;11.034;2023-05-31T13:38:41;25.70;33.80
13472;DHT22;6808;49.444;11.034;2023-05-31T13:41:07;25.80;30.50
13472;DHT22;6808;49.444;11.034;2023-05-31T13:43:33;25.60;30.70
13472;DHT22;6808;49.444;11.034;2023-05-31T13:45:59;26.10;31.10
13472;DHT22;6808;49.444;11.034;2023-05-31T13:48:25;25.60;31.00
13472;DHT22;6808;49.444;11.034;2023-05-31T13:50:51;25.40;31.20
13472;DHT22;6808;49.444;11.034;2023-05-31T13:53:18;25.20;31.70
13472;DHT22;6808;49.444;11.034;2023-05-31T13:55:43;25.10;32.40
13472;DHT22;6808;49.444;11.034;2023-05-31T13:58:11;25.10;32.00
13472;DHT22;6808;49.444;11.034;2023-05-31T14:00:37;25.20;31.60
13472;DHT22;6808;49.444;11.034;2023-05-31T14:03:03;25.20;32.10
13472;DHT22;6808;49.444;11.034;2023-05-31T14:05:28;25.40;32.30
13472;DHT22;6808;49.444;11.034;2023-05-31T14:07:55;25.40;32.10
13472;DHT22;6808;49.444;11.034;2023-05-31T14:10:21;25.50;32.40
13472;DHT22;6808;49.444;11.034;2023-05-31T14:12:47;25.70;32.10
13472;DHT22;6808;49.444;11.034;2023-05-31T14:15:13;25.80;31.80
13472;DHT22;6808;49.444;11.034;2023-05-31T14:17:39;25.90;33.10
13472;DHT22;6808;49.444;11.034;2023-05-31T14:20:05;26.00;31.70
13472;DHT22;6808;49.444;11.034;2023-05-31T14:22:31;25.80;31.30
13472;DHT22;6808;49.444;11.034;2023-05-31T14:24:57;25.70;31.30
13472;DHT22;6808;49.444;11.034;2023-05-31T14:27:23;25.70;32.20
13472;DHT22;6808;49.444;11.034;2023-05-31T14:29:49;25.80;31.00
13472;DHT22;6808;49.444;11.034;2023-05-31T14:32:15;25.70;30.80
13472;DHT22;6808;49.444;11.034;2023-05-31T14:34:44;25.80;31.00
13472;DHT22;6808;49.444;11.034;2023-05-31T14:37:10;25.70;31.00
13472;DHT22;6808;49.444;11.034;2023-05-31T14:39:36;25.70;30.50
13472;DHT22;6808;49.444;11.034;2023-05-31T14:42:02;25.90;31.00
13472;DHT22;6808;49.444;11.034;2023-05-31T14:44:29;25.60;30.10
13472;DHT22;6808;49.444;11.034;2023-05-31T14:46:54;25.50;30.30
13472;DHT22;6808;49.444;11.034;2023-05-31T14:49:21;25.60;30.30
13472;DHT22;6808;49.444;11.034;2023-05-31T14:51:51;25.60;30.80
13472;DHT22;6808;49.444;11.034;2023-05-31T14:54:17;25.70;31.10
13472;DHT22;6808;49.444;11.034;2023-05-31T14:56:43;25.90;31.80
13472;DHT22;6808;49.444;11.034;2023-05-31T14:59:09;25.90;30.60
13472;DHT22;6808;49.444;11.034;2023-05-31T15:01:36;26.00;31.10
13472;DHT22;6808;49.444;11.034;2023-05-31T15:04:01;25.90;30.50
13472;DHT22;6808;49.444;11.034;2023-05-31T15:06:28;25.70;30.80
13472;DHT22;6808;49.444;11.034;2023-05-31T15:08:54;25.80;30.80
13472;DHT22;6808;49.444;11.034;2023-05-31T15:11:19;25.70;30.90
13472;DHT22;6808;49.444;11.034;2023-05-31T15:13:45;25.50;30.70
13472;DHT22;6808;49.444;11.034;2023-05-31T15:16:11;25.50;31.30
13472;DHT22;6808;49.444;11.034;2023-05-31T15:18:36;25.50;31.50
13472;DHT22;6808;49.444;11.034;2023-05-31T15:21:02;25.60;32.00
13472;DHT22;6808;49.444;11.034;2023-05-31T15:23:28;25.70;31.80
13472;DHT22;6808;49.444;11.034;2023-05-31T15:25:53;25.70;31.40
13472;DHT22;6808;49.444;11.034;2023-05-31T15:28:19;25.80;31.70
13472;DHT22;6808;49.444;11.034;2023-05-31T15:30:45;25.70;31.70
13472;DHT22;6808;49.444;11.034;2023-05-31T15:33:10;25.60;31.40
13472;DHT22;6808;49.444;11.034;2023-05-31T15:35:36;25.50;31.40
13472;DHT22;6808;49.444;11.034;2023-05-31T15:38:02;25.30;31.30
13472;DHT22;6808;49.444;11.034;2023-05-31T15:40:28;25.20;31.20
13472;DHT22;6808;49.444;11.034;2023-05-31T15:42:54;25.10;31.10
13472;DHT22;6808;49.444;11.034;2023-05-31T15:45:19;25.20;31.10
13472;DHT22;6808;49.444;11.034;2023-05-31T15:47:45;25.20;31.30